Latest Weather Observations for Green Cape

IDN60801

Issued at 11:35 am EDT Saturday 25 October 2014 (issued every 30 minutes, with the page automatically refreshed every 10 minutes)

About weather observations | Map of weather stations | Latest weather observations for NSW | Other Formats
Station Details ID: 069137 Name: GREEN CAPE AWS Lat: -37.26 Lon: 150.05 Height: 19.4 m
Data from the previous 72 hours. | See also: Recent months at Green Cape
Date/Time
EDT
Temp
°C
App
Temp
°C
Dew
Point
Rel
Hum
%
Delta-T
°C
Wind Press
QNH
hPa
Press
MSL
hPa
Rain
since 9 am
mm
Dir
 
Spd
km/h
Gust
km/h
Spd
kts
Gust
kts
25/11:30am 18.8 15.0 14.7 77 2.4 S 28 33 15 18 1016.3 1016.3 0.2
25/11:00am 19.2 16.3 15.1 77 2.4 S 24 28 13 15 1016.4 1016.4 0.2
25/10:30am 18.8 16.6 14.9 78 2.3 S 20 24 11 13 1016.6 1016.6 0.0
25/10:00am 18.3 15.9 14.4 78 2.2 S 20 24 11 13 1016.5 1016.5 0.0
25/09:30am 18.0 15.8 14.9 82 1.8 S 20 24 11 13 1016.4 1016.4 0.0
25/09:00am 17.3 14.6 14.6 84 1.6 SSW 22 26 12 14 1016.3 1016.3 0.0
25/08:30am 17.3 14.7 14.8 85 1.4 SSW 22 26 12 14 1016.1 1016.1 0.0
25/08:00am 16.9 14.5 14.5 86 1.4 SSW 20 24 11 13 1016.0 1016.0 0.0
25/07:30am 16.6 12.8 14.6 88 1.1 SSW 28 32 15 17 1015.3 1015.3 0.0
25/07:00am 16.4 11.2 14.4 88 1.1 SSW 35 41 19 22 1014.8 1014.8 0.0
25/06:30am 16.6 14.5 14.8 89 1.0 SSW 19 26 10 14 1014.8 1014.8 0.0
25/06:00am 16.4 15.4 14.6 89 1.0 SW 13 15 7 8 1014.4 1014.4 0.0
25/05:30am 16.3 15.4 14.8 91 0.9 W 13 15 7 8 1014.1 1014.1 0.0
25/05:00am 16.6 15.2 15.5 93 0.6 WSW 17 22 9 12 1013.6 1013.6 0.0
25/04:30am 16.4 15.1 15.9 97 0.3 SW 17 19 9 10 1013.7 1013.7 0.0
25/04:00am 16.2 15.6 15.7 97 0.3 W 13 17 7 9 1013.2 1013.2 0.0
25/03:30am 16.4 18.4 15.9 97 0.3 W 0 11 0 6 1013.0 1013.0 0.0
25/03:00am 16.0 17.8 15.5 97 0.3 CALM 0 2 0 1 1013.1 1013.1 0.0
25/02:30am 16.3 18.2 15.8 97 0.3 CALM 0 0 0 0 1012.8 1012.8 0.0
25/02:00am 16.5 18.5 15.9 96 0.4 CALM 0 2 0 1 1012.7 1012.7 0.0
25/01:30am 16.7 18.7 16.1 96 0.4 CALM 0 0 0 0 1012.2 1012.2 0.0
25/01:00am 16.9 18.9 16.1 95 0.5 CALM 0 2 0 1 1012.5 1012.5 0.0
25/12:30am 16.6 18.5 15.8 95 0.5 CALM 0 0 0 0 1012.4 1012.4 0.0
25/12:00am 16.2 18.0 15.4 95 0.5 N 0 0 0 0 1012.3 1012.3 0.0
 
Date/Time
EDT
Temp
°C
App
Temp
°C
Dew
Point
Rel
Hum
%
Delta-T
°C
Wind Press
QNH
hPa
Press
MSL
hPa
Rain
since 9 am
mm
Dir
 
Spd
km/h
Gust
km/h
Spd
kts
Gust
kts
24/11:30pm 16.4 18.2 15.6 95 0.5 CALM 0 0 0 0 1012.2 1012.2 0.0
24/11:00pm 16.1 17.8 15.1 94 0.6 CALM 0 0 0 0 1012.3 1012.3 0.0
24/10:30pm 16.4 17.4 15.4 94 0.6 N 4 7 2 4 1012.3 1012.3 0.0
24/10:00pm 16.5 17.0 15.5 94 0.6 N 7 11 4 6 1012.2 1012.2 0.0
24/09:30pm 16.9 16.0 15.9 94 0.6 N 15 17 8 9 1012.1 1012.1 0.0
24/09:00pm 17.2 17.5 16.1 93 0.7 N 9 13 5 7 1012.3 1012.3 0.0
24/08:30pm 17.2 15.4 16.1 93 0.7 N 20 22 11 12 1011.7 1011.7 0.0
24/08:00pm 17.5 15.0 16.2 92 0.8 N 24 26 13 14 1011.2 1011.2 0.0
24/07:30pm 17.7 14.5 16.2 91 0.9 N 28 30 15 16 1011.0 1011.0 0.0
24/07:00pm 18.6 18.9 17.1 91 0.9 N 11 15 6 8 1011.6 1011.6 0.0
24/06:30pm 17.9 16.3 16.4 91 0.9 N 20 22 11 12 1011.2 1011.2 0.0
24/06:00pm 18.4 16.1 16.7 90 1.0 NNE 24 28 13 15 1011.0 1011.0 0.0
24/05:30pm 18.7 17.3 16.9 89 1.1 NNE 20 24 11 13 1011.3 1011.3 0.0
24/05:00pm 19.2 17.4 17.0 87 1.3 N 22 24 12 13 1011.3 1011.3 0.0
24/04:30pm 19.5 17.9 17.5 88 1.2 NNE 22 26 12 14 1011.4 1011.4 0.0
24/04:00pm 19.9 17.6 17.5 86 1.5 NNE 26 30 14 16 1011.5 1011.5 0.0
24/03:30pm 20.4 17.8 17.8 85 1.6 N 28 32 15 17 1011.7 1011.7 0.0
24/03:00pm 20.6 17.7 18.0 85 1.6 NNE 30 32 16 17 1012.0 1012.0 0.0
24/02:30pm 20.1 17.1 17.7 86 1.5 NNE 30 33 16 18 1012.3 1012.3 0.0
24/02:00pm 19.6 16.0 17.2 86 1.5 NNE 32 35 17 19 1012.8 1012.8 0.0
24/01:30pm 20.1 16.9 17.3 84 1.7 NNE 30 35 16 19 1013.2 1013.2 0.0
24/01:00pm 20.1 16.3 17.3 84 1.7 N 33 41 18 22 1013.5 1013.5 0.0
24/12:30pm 19.8 16.0 17.2 85 1.6 NNE 33 39 18 21 1014.1 1014.1 0.0
24/12:00pm 19.9 17.2 17.5 86 1.5 NNE 28 32 15 17 1014.8 1014.8 0.0
24/11:30am 19.4 17.8 17.4 88 1.2 NNE 22 26 12 14 1015.4 1015.4 0.0
24/11:00am 19.4 18.0 17.9 91 0.9 NNE 22 26 12 14 1016.0 1016.0 0.0
24/10:30am 18.8 16.8 17.3 91 0.9 NNE 24 30 13 16 1016.4 1016.4 0.0
24/10:00am 19.0 16.7 17.5 91 0.9 NNE 26 32 14 17 1016.8 1016.8 0.0
24/09:30am 18.3 17.5 17.1 93 0.7 NNE 17 24 9 13 1017.2 1017.2 0.0
24/09:00am 18.2 17.4 17.2 94 0.6 NNE 17 19 9 10 1017.5 1017.5 1.0
24/08:30am 17.7 16.4 16.9 95 0.5 NNE 19 20 10 11 1017.5 1017.5 1.0
24/08:00am 17.4 16.9 16.8 96 0.4 N 15 17 8 9 1017.9 1017.9 1.0
24/07:30am 17.1 16.1 16.5 96 0.4 NNE 17 19 9 10 1017.9 1017.9 1.0
24/07:00am 17.4 15.5 16.8 96 0.4 NNE 22 30 12 16 1017.5 1017.5 1.0
24/06:30am 17.4 16.1 16.8 96 0.4 NNE 19 22 10 12 1017.8 1017.8 1.0
24/06:00am 17.4 18.0 16.8 96 0.4 NNE 9 11 5 6 1018.4 1018.4 1.0
24/05:30am 17.6 14.3 17.0 96 0.4 NNE 30 33 16 18 1017.0 1017.0 0.8
24/05:00am 17.5 12.4 16.9 96 0.4 NNE 39 44 21 24 1016.1 1016.1 0.2
24/04:55am 17.4 13.1 16.8 96 0.4 NNE 35 44 19 24 1016.2 1016.2 0.2
24/04:30am 17.6 15.4 17.0 96 0.4 NE 24 30 13 16 1018.2 1018.2 0.2
24/04:00am 17.4 15.5 16.8 96 0.4 NNE 22 28 12 15 1017.1 1017.1 0.2
24/03:30am 17.4 15.5 16.8 96 0.4 NNE 22 26 12 14 1017.8 1017.8 0.2
24/03:00am 17.4 16.0 16.6 95 0.5 NNE 19 20 10 11 1018.5 1018.5 0.2
24/02:30am 17.4 15.8 16.6 95 0.5 NNE 20 22 11 12 1018.7 1018.7 0.2
24/02:00am 17.5 18.6 16.7 95 0.5 NNE 6 11 3 6 1018.9 1018.9 0.2
24/01:30am 17.3 18.3 16.3 94 0.6 NNE 6 9 3 5 1019.3 1019.3 0.2
24/01:00am 17.1 18.8 16.1 94 0.6 N 2 4 1 2 1019.8 1019.8 0.0
24/12:30am 16.7 18.2 15.7 94 0.6 W 2 4 1 2 1019.9 1019.9 0.0
24/12:00am 16.8 18.7 15.8 94 0.6 CALM 0 4 0 2 1020.2 1020.2 0.0
 
Date/Time
EDT
Temp
°C
App
Temp
°C
Dew
Point
Rel
Hum
%
Delta-T
°C
Wind Press
QNH
hPa
Press
MSL
hPa
Rain
since 9 am
mm
Dir
 
Spd
km/h
Gust
km/h
Spd
kts
Gust
kts
23/11:30pm 16.8 17.6 15.8 94 0.6 W 6 7 3 4 1020.4 1020.4 0.0
23/11:00pm 16.7 17.4 15.7 94 0.6 W 6 6 3 3 1020.2 1020.2 0.0
23/10:30pm 16.8 18.7 15.7 93 0.6 CALM 0 0 0 0 1020.2 1020.2 0.0
23/10:00pm 16.6 18.0 15.5 93 0.6 SE 2 4 1 2 1020.0 1020.0 0.0
23/09:30pm 16.8 17.0 15.7 93 0.6 ESE 9 13 5 7 1020.1 1020.1 0.0
23/09:00pm 16.9 16.4 15.8 93 0.6 SE 13 15 7 8 1019.9 1019.9 0.0
23/08:30pm 16.8 17.0 15.7 93 0.6 SSW 9 11 5 6 1020.3 1020.3 0.0
23/08:00pm 16.9 17.0 15.6 92 0.8 SSW 9 11 5 6 1020.2 1020.2 0.0
23/07:30pm 17.2 17.4 15.7 91 0.9 S 9 11 5 6 1019.3 1019.3 0.0
23/07:00pm 17.2 16.9 15.5 90 1.0 S 11 13 6 7 1019.1 1019.1 0.0
23/06:30pm 17.6 17.4 15.8 89 1.1 S 11 15 6 8 1019.2 1019.2 0.0
23/06:00pm 17.7 16.5 16.0 90 1.0 S 17 19 9 10 1019.1 1019.1 0.0
23/05:30pm 17.5 15.8 15.8 90 1.0 S 19 20 10 11 1019.1 1019.1 0.0
23/05:00pm 17.9 15.6 15.7 87 1.3 S 22 24 12 13 1018.8 1018.8 0.0
23/04:30pm 18.5 15.8 15.7 84 1.7 S 24 26 13 14 1018.6 1018.6 0.0
23/04:00pm 19.1 15.4 16.0 82 1.8 S 30 35 16 19 1018.1 1018.1 0.0
23/03:30pm 19.0 14.3 15.9 82 1.8 S 35 41 19 22 1017.6 1017.6 0.0
23/03:00pm 19.2 14.5 15.9 81 2.0 S 35 41 19 22 1017.6 1017.6 0.0
23/02:30pm 19.4 13.9 15.7 79 2.2 S 39 43 21 23 1017.4 1017.4 0.0
23/02:00pm 20.3 15.6 15.9 76 2.6 S 35 41 19 22 1017.7 1017.7 0.0
23/01:30pm 20.4 16.0 15.6 74 2.9 S 33 37 18 20 1017.6 1017.6 0.0
23/01:00pm 21.1 17.2 15.6 71 3.3 S 30 33 16 18 1017.7 1017.7 0.0
23/12:30pm 22.2 21.9 16.5 70 3.5 S 13 22 7 12 1017.9 1017.9 0.0
23/12:00pm 22.3 24.0 16.1 68 3.7 SSE 2 4 1 2 1018.2 1018.2 0.0
23/11:30am 22.7 25.0 16.7 69 3.7 CALM 0 2 0 1 1018.6 1018.6 0.0
23/11:00am 20.2 22.1 15.8 76 2.6 CALM 0 0 0 0 1018.7 1018.7 0.0
23/10:30am 19.5 21.1 15.0 75 2.6 CALM 0 0 0 0 1018.7 1018.7 0.0
23/10:00am 20.2 21.0 15.8 76 2.6 NNW 6 13 3 7 1018.5 1018.5 0.0
23/09:30am 19.2 18.9 15.5 79 2.2 N 11 20 6 11 1017.9 1017.9 0.0
23/09:00am 18.7 20.7 15.9 84 1.7 CALM 0 2 0 1 1017.3 1017.3 0.0
23/08:30am 17.8 19.5 15.1 84 1.6 CALM 0 0 0 0 1017.3 1017.3 0.0
23/08:00am 17.1 18.7 14.9 87 1.3 CALM 0 0 0 0 1017.7 1017.7 0.0
23/07:30am 16.2 17.7 14.6 90 0.9 CALM 0 0 0 0 1017.6 1017.6 0.0
23/07:00am 14.6 15.6 13.1 91 0.8 CALM 0 4 0 2 1017.7 1017.7 0.0
23/06:30am 14.6 15.6 13.1 91 0.8 CALM 0 0 0 0 1017.1 1017.1 0.0
23/06:00am 14.7 15.7 13.2 91 0.8 CALM 0 4 0 2 1017.1 1017.1 0.0
23/05:30am 14.9 16.0 13.4 91 0.8 CALM 0 0 0 0 1016.2 1016.2 0.0
23/05:00am 15.0 15.3 13.4 90 0.9 N 4 6 2 3 1016.1 1016.1 0.0
23/04:30am 15.1 14.2 13.6 91 0.8 WNW 11 17 6 9 1016.1 1016.1 0.0
23/04:00am 15.6 15.6 14.1 91 0.8 NNW 7 11 4 6 1016.0 1016.0 0.0
23/03:30am 15.4 14.2 14.1 92 0.7 N 13 19 7 10 1016.0 1016.0 0.0
23/03:00am 15.2 15.1 13.9 92 0.7 N 7 11 4 6 1016.4 1016.4 0.0
23/02:30am 15.1 15.0 13.8 92 0.7 N 7 9 4 5 1016.7 1016.7 0.0
23/02:00am 15.2 14.0 13.9 92 0.7 N 13 15 7 8 1017.0 1017.0 0.0
23/01:30am 15.3 15.2 14.0 92 0.7 N 7 13 4 7 1017.4 1017.4 0.0
23/01:00am 15.4 14.6 14.1 92 0.7 N 11 15 6 8 1017.7 1017.7 0.0
23/12:30am 15.7 12.2 14.4 92 0.7 N 26 28 14 15 1017.5 1017.5 0.0
23/12:00am 15.7 12.2 14.4 92 0.7 N 26 30 14 16 1017.7 1017.7 0.0
 
Date/Time
EDT
Temp
°C
App
Temp
°C
Dew
Point
Rel
Hum
%
Delta-T
°C
Wind Press
QNH
hPa
Press
MSL
hPa
Rain
since 9 am
mm
Dir
 
Spd
km/h
Gust
km/h
Spd
kts
Gust
kts
22/11:30pm 15.6 12.0 14.3 92 0.7 N 26 28 14 15 1017.9 1017.9 0.0
22/11:00pm 15.8 12.3 14.5 92 0.7 N 26 28 14 15 1017.9 1017.9 0.0
22/10:30pm 16.0 12.2 14.7 92 0.7 N 28 30 15 16 1018.3 1018.3 0.0
22/10:00pm 16.0 12.6 14.7 92 0.7 N 26 30 14 16 1018.6 1018.6 0.0
22/09:30pm 16.1 12.6 14.6 91 0.9 N 26 28 14 15 1018.7 1018.7 0.0
22/09:00pm 16.1 12.6 14.6 91 0.9 N 26 28 14 15 1018.7 1018.7 0.0
22/08:30pm 16.2 12.7 14.6 90 0.9 N 26 28 14 15 1018.5 1018.5 0.0
22/08:00pm 16.2 13.4 14.4 89 1.0 N 22 24 12 13 1018.3 1018.3 0.0
22/07:30pm 16.4 13.9 14.2 87 1.3 N 20 24 11 13 1018.5 1018.5 0.0
22/07:00pm 16.8 13.9 14.1 84 1.5 N 22 24 12 13 1018.4 1018.4 0.0
22/06:30pm 17.1 14.3 14.2 83 1.7 N 22 26 12 14 1018.3 1018.3 0.0
22/06:00pm 17.4 14.8 13.9 80 2.0 N 20 24 11 13 1018.5 1018.5 0.0
22/05:30pm 17.9 15.0 14.0 78 2.2 N 22 26 12 14 1018.6 1018.6 0.0
22/05:00pm 18.1 14.4 13.8 76 2.4 N 26 28 14 15 1018.6 1018.6 0.0
22/04:30pm 18.1 13.9 13.4 74 2.7 N 28 32 15 17 1018.6 1018.6 0.0
22/04:00pm 18.2 13.5 13.3 73 2.8 N 30 33 16 18 1018.9 1018.9 0.0
22/03:30pm 18.3 13.6 13.2 72 2.9 N 30 37 16 20 1019.1 1019.1 0.0
22/03:00pm 18.5 13.4 13.1 71 3.0 N 32 37 17 20 1019.5 1019.5 0.0
22/02:30pm 18.3 12.5 12.7 70 3.1 N 35 43 19 23 1019.8 1019.8 0.0
22/02:00pm 18.2 12.0 12.6 70 3.1 N 37 44 20 24 1020.1 1020.1 0.0
22/01:30pm 18.3 12.1 12.5 69 3.2 N 37 44 20 24 1020.3 1020.3 0.0
22/01:00pm 17.9 10.7 11.9 68 3.3 N 41 50 22 27 1020.7 1020.7 0.0
22/12:30pm 17.6 9.9 11.6 68 3.3 N 43 52 23 28 1021.0 1021.0 0.0
22/12:00pm 17.9 10.8 12.1 69 3.2 N 41 52 22 28 1021.6 1021.6 0.0

Other Formats:

Comma delimited format used in spreadsheet applications
http://www.bom.gov.au/fwo/IDN60801/IDN60801.94934.axf

JavaScript Object Notation format (JSON) in row-major order
http://www.bom.gov.au/fwo/IDN60801/IDN60801.94934.json